sensor_id;sensor_type;location;lat;lon;timestamp;pressure;altitude;pressure_sealevel;temperature;humidity
17311;BME280;8773;43.300;0.394;2024-02-04T00:01:00;101367.00;;;7.57;100.00
17311;BME280;8773;43.300;0.394;2024-02-04T00:03:29;101364.81;;;7.49;100.00
17311;BME280;8773;43.300;0.394;2024-02-04T00:05:57;101361.50;;;7.46;100.00
17311;BME280;8773;43.300;0.394;2024-02-04T00:08:24;101365.28;;;7.42;100.00
17311;BME280;8773;43.300;0.394;2024-02-04T00:10:51;101360.53;;;7.47;100.00
17311;BME280;8773;43.300;0.394;2024-02-04T00:13:19;101363.59;;;7.41;100.00
17311;BME280;8773;43.300;0.394;2024-02-04T00:15:46;101359.78;;;7.45;100.00
17311;BME280;8773;43.300;0.394;2024-02-04T00:18:14;101362.63;;;7.42;100.00
17311;BME280;8773;43.300;0.394;2024-02-04T00:20:43;101359.03;;;7.43;100.00
17311;BME280;8773;43.300;0.394;2024-02-04T00:23:10;101361.69;;;7.43;100.00
17311;BME280;8773;43.300;0.394;2024-02-04T00:25:37;101362.19;;;7.35;100.00
17311;BME280;8773;43.300;0.394;2024-02-04T00:28:05;101354.97;;;7.37;100.00
17311;BME280;8773;43.300;0.394;2024-02-04T00:30:32;101353.56;;;7.32;100.00
17311;BME280;8773;43.300;0.394;2024-02-04T00:33:00;101357.25;;;7.29;100.00
17311;BME280;8773;43.300;0.394;2024-02-04T00:35:27;101356.38;;;7.28;100.00
17311;BME280;8773;43.300;0.394;2024-02-04T00:37:56;101355.53;;;7.28;100.00
17311;BME280;8773;43.300;0.394;2024-02-04T00:40:24;101355.53;;;7.28;100.00
17311;BME280;8773;43.300;0.394;2024-02-04T00:42:51;101354.97;;;7.23;100.00
17311;BME280;8773;43.300;0.394;2024-02-04T00:45:18;101354.88;;;7.24;100.00
17311;BME280;8773;43.300;0.394;2024-02-04T00:47:46;101347.28;;;7.18;100.00
17311;BME280;8773;43.300;0.394;2024-02-04T00:50:13;101330.09;;;7.10;100.00
17311;BME280;8773;43.300;0.394;2024-02-04T00:52:40;101344.53;;;7.20;100.00
17311;BME280;8773;43.300;0.394;2024-02-04T00:55:09;101341.38;;;7.13;100.00
17311;BME280;8773;43.300;0.394;2024-02-04T00:57:37;101343.47;;;7.08;100.00
17311;BME280;8773;43.300;0.394;2024-02-04T01:00:05;101343.28;;;7.11;100.00
17311;BME280;8773;43.300;0.394;2024-02-04T01:02:33;101336.53;;;7.06;100.00
17311;BME280;8773;43.300;0.394;2024-02-04T01:05:00;101335.88;;;7.02;100.00
17311;BME280;8773;43.300;0.394;2024-02-04T01:07:27;101328.84;;;6.87;100.00
17311;BME280;8773;43.300;0.394;2024-02-04T01:09:55;101326.00;;;6.90;100.00
17311;BME280;8773;43.300;0.394;2024-02-04T01:12:24;101332.63;;;6.83;100.00
17311;BME280;8773;43.300;0.394;2024-02-04T01:14:51;101331.84;;;6.81;100.00
17311;BME280;8773;43.300;0.394;2024-02-04T01:17:19;101341.22;;;6.72;100.00
17311;BME280;8773;43.300;0.394;2024-02-04T01:19:46;101341.72;;;6.79;100.00
17311;BME280;8773;43.300;0.394;2024-02-04T01:22:13;101345.91;;;6.83;100.00
17311;BME280;8773;43.300;0.394;2024-02-04T01:24:41;101346.84;;;6.82;100.00
17311;BME280;8773;43.300;0.394;2024-02-04T01:27:08;101354.34;;;6.89;100.00
17311;BME280;8773;43.300;0.394;2024-02-04T01:29:37;101350.84;;;6.89;100.00
17311;BME280;8773;43.300;0.394;2024-02-04T01:32:05;101356.91;;;6.91;100.00
17311;BME280;8773;43.300;0.394;2024-02-04T01:34:32;101358.00;;;6.73;100.00
17311;BME280;8773;43.300;0.394;2024-02-04T01:37:00;101351.50;;;6.62;100.00
17311;BME280;8773;43.300;0.394;2024-02-04T01:39:27;101358.84;;;6.57;100.00
17311;BME280;8773;43.300;0.394;2024-02-04T01:41:54;101359.69;;;6.58;100.00
17311;BME280;8773;43.300;0.394;2024-02-04T01:44:22;101355.34;;;6.57;100.00
17311;BME280;8773;43.300;0.394;2024-02-04T01:46:50;101353.53;;;6.57;100.00
17311;BME280;8773;43.300;0.394;2024-02-04T01:49:18;101361.59;;;6.56;100.00
17311;BME280;8773;43.300;0.394;2024-02-04T01:51:45;101356.75;;;6.48;100.00
17311;BME280;8773;43.300;0.394;2024-02-04T01:54:13;101360.25;;;6.49;100.00
17311;BME280;8773;43.300;0.394;2024-02-04T01:56:42;101367.91;;;6.53;100.00
17311;BME280;8773;43.300;0.394;2024-02-04T01:59:10;101364.31;;;6.54;100.00
17311;BME280;8773;43.300;0.394;2024-02-04T02:01:38;101372.50;;;6.51;100.00
17311;BME280;8773;43.300;0.394;2024-02-04T02:04:07;101375.50;;;6.45;100.00
17311;BME280;8773;43.300;0.394;2024-02-04T02:06:34;101374.56;;;6.46;100.00
17311;BME280;8773;43.300;0.394;2024-02-04T02:09:02;101375.88;;;6.53;100.00
17311;BME280;8773;43.300;0.394;2024-02-04T02:11:36;101377.88;;;6.50;100.00
17311;BME280;8773;43.300;0.394;2024-02-04T02:14:06;101371.34;;;6.55;100.00
17311;BME280;8773;43.300;0.394;2024-02-04T02:16:37;101370.56;;;6.53;100.00
17311;BME280;8773;43.300;0.394;2024-02-04T02:19:17;101369.16;;;6.48;100.00
17311;BME280;8773;43.300;0.394;2024-02-04T02:21:52;101371.63;;;6.51;100.00
17311;BME280;8773;43.300;0.394;2024-02-04T02:24:42;101376.00;;;6.52;100.00
17311;BME280;8773;43.300;0.394;2024-02-04T02:27:11;101380.63;;;6.48;100.00
17311;BME280;8773;43.300;0.394;2024-02-04T02:29:38;101379.69;;;6.49;100.00
17311;BME280;8773;43.300;0.394;2024-02-04T02:32:06;101371.91;;;6.46;100.00
17311;BME280;8773;43.300;0.394;2024-02-04T02:34:34;101371.91;;;6.46;100.00
17311;BME280;8773;43.300;0.394;2024-02-04T02:37:12;101374.81;;;6.42;100.00
17311;BME280;8773;43.300;0.394;2024-02-04T02:39:49;101375.06;;;6.37;100.00
17311;BME280;8773;43.300;0.394;2024-02-04T02:42:18;101371.81;;;6.32;100.00
17311;BME280;8773;43.300;0.394;2024-02-04T02:44:47;101364.31;;;6.24;100.00
17311;BME280;8773;43.300;0.394;2024-02-04T02:47:15;101355.31;;;6.11;100.00
17311;BME280;8773;43.300;0.394;2024-02-04T02:49:43;101356.56;;;6.06;100.00
17311;BME280;8773;43.300;0.394;2024-02-04T02:52:11;101355.94;;;6.01;100.00
17311;BME280;8773;43.300;0.394;2024-02-04T02:54:38;101370.75;;;6.05;100.00
17311;BME280;8773;43.300;0.394;2024-02-04T02:57:07;101365.66;;;6.16;100.00
17311;BME280;8773;43.300;0.394;2024-02-04T02:59:34;101362.25;;;6.14;100.00
17311;BME280;8773;43.300;0.394;2024-02-04T03:02:02;101362.53;;;6.09;100.00
17311;BME280;8773;43.300;0.394;2024-02-04T03:04:29;101355.69;;;6.05;100.00
17311;BME280;8773;43.300;0.394;2024-02-04T03:06:56;101355.44;;;6.10;100.00
17311;BME280;8773;43.300;0.394;2024-02-04T03:09:24;101350.22;;;6.08;100.00
17311;BME280;8773;43.300;0.394;2024-02-04T03:11:51;101343.38;;;6.04;100.00
17311;BME280;8773;43.300;0.394;2024-02-04T03:14:20;101346.13;;;6.03;100.00
17311;BME280;8773;43.300;0.394;2024-02-04T03:16:48;101343.81;;;5.96;100.00
17311;BME280;8773;43.300;0.394;2024-02-04T03:19:16;101341.66;;;6.03;100.00
17311;BME280;8773;43.300;0.394;2024-02-04T03:21:44;101346.13;;;6.03;100.00
17311;BME280;8773;43.300;0.394;2024-02-04T03:24:11;101346.81;;;6.06;100.00
17311;BME280;8773;43.300;0.394;2024-02-04T03:26:38;101351.25;;;6.06;100.00
17311;BME280;8773;43.300;0.394;2024-02-04T03:29:06;101349.16;;;6.11;100.00
17311;BME280;8773;43.300;0.394;2024-02-04T03:31:34;101344.06;;;6.08;100.00
17311;BME280;8773;43.300;0.394;2024-02-04T03:34:02;101348.59;;;6.06;100.00
17311;BME280;8773;43.300;0.394;2024-02-04T03:36:30;101339.78;;;5.89;100.00
17311;BME280;8773;43.300;0.394;2024-02-04T03:38:57;101343.53;;;5.85;100.00
17311;BME280;8773;43.300;0.394;2024-02-04T03:41:25;101354.66;;;5.92;100.00
17311;BME280;8773;43.300;0.394;2024-02-04T03:43:52;101342.78;;;5.83;100.00
17311;BME280;8773;43.300;0.394;2024-02-04T03:46:19;101351.31;;;5.73;100.00
17311;BME280;8773;43.300;0.394;2024-02-04T03:48:48;101344.91;;;5.77;100.00
17311;BME280;8773;43.300;0.394;2024-02-04T03:51:16;101333.00;;;5.68;100.00
17311;BME280;8773;43.300;0.394;2024-02-04T03:53:44;101335.84;;;5.65;100.00
17311;BME280;8773;43.300;0.394;2024-02-04T03:56:11;101345.75;;;5.77;100.00
17311;BME280;8773;43.300;0.394;2024-02-04T03:58:39;101336.44;;;5.70;100.00
17311;BME280;8773;43.300;0.394;2024-02-04T04:01:09;101335.50;;;5.71;100.00
17311;BME280;8773;43.300;0.394;2024-02-04T04:03:39;101338.22;;;5.70;100.00
17311;BME280;8773;43.300;0.394;2024-02-04T04:06:08;101331.81;;;5.74;100.00
17311;BME280;8773;43.300;0.394;2024-02-04T04:08:35;101337.22;;;5.72;100.00
17311;BME280;8773;43.300;0.394;2024-02-04T04:11:03;101334.91;;;5.66;100.00
17311;BME280;8773;43.300;0.394;2024-02-04T04:13:30;101333.09;;;5.67;100.00
17311;BME280;8773;43.300;0.394;2024-02-04T04:15:57;101326.97;;;5.66;100.00
17311;BME280;8773;43.300;0.394;2024-02-04T04:18:25;101336.09;;;5.60;100.00
17311;BME280;8773;43.300;0.394;2024-02-04T04:20:52;101327.13;;;5.63;100.00
17311;BME280;8773;43.300;0.394;2024-02-04T04:23:21;101331.91;;;5.56;100.00
17311;BME280;8773;43.300;0.394;2024-02-04T04:25:48;101334.81;;;5.52;100.00
17311;BME280;8773;43.300;0.394;2024-02-04T04:28:16;101326.63;;;5.56;100.00
17311;BME280;8773;43.300;0.394;2024-02-04T04:30:43;101333.72;;;5.56;100.00
17311;BME280;8773;43.300;0.394;2024-02-04T04:33:10;101325.25;;;5.49;100.00
17311;BME280;8773;43.300;0.394;2024-02-04T04:35:38;101324.53;;;5.46;100.00
17311;BME280;8773;43.300;0.394;2024-02-04T04:38:05;101336.25;;;5.42;100.00
17311;BME280;8773;43.300;0.394;2024-02-04T04:40:34;101336.41;;;5.39;100.00
17311;BME280;8773;43.300;0.394;2024-02-04T04:43:01;101330.41;;;5.35;100.00
17311;BME280;8773;43.300;0.394;2024-02-04T04:45:29;101330.84;;;5.43;100.00
17311;BME280;8773;43.300;0.394;2024-02-04T04:47:56;101322.84;;;5.45;100.00
17311;BME280;8773;43.300;0.394;2024-02-04T04:50:24;101326.00;;;5.51;100.00
17311;BME280;8773;43.300;0.394;2024-02-04T04:52:51;101332.94;;;5.70;100.00
17311;BME280;8773;43.300;0.394;2024-02-04T04:55:19;101325.09;;;5.84;100.00
17311;BME280;8773;43.300;0.394;2024-02-04T04:57:47;101327.66;;;6.01;100.00
17311;BME280;8773;43.300;0.394;2024-02-04T05:00:16;101326.28;;;6.10;100.00
17311;BME280;8773;43.300;0.394;2024-02-04T05:02:43;101322.41;;;6.15;100.00
17311;BME280;8773;43.300;0.394;2024-02-04T05:05:11;101323.50;;;6.27;100.00
17311;BME280;8773;43.300;0.394;2024-02-04T05:07:38;101322.97;;;6.36;100.00
17311;BME280;8773;43.300;0.394;2024-02-04T05:10:07;101312.88;;;6.43;100.00
17311;BME280;8773;43.300;0.394;2024-02-04T05:12:35;101317.91;;;6.47;100.00
17311;BME280;8773;43.300;0.394;2024-02-04T05:15:05;101338.66;;;6.55;100.00
17311;BME280;8773;43.300;0.394;2024-02-04T05:17:33;101321.59;;;6.45;100.00
17311;BME280;8773;43.300;0.394;2024-02-04T05:20:01;101342.16;;;6.71;100.00
17311;BME280;8773;43.300;0.394;2024-02-04T05:22:28;101335.91;;;6.72;100.00
17311;BME280;8773;43.300;0.394;2024-02-04T05:24:56;101339.47;;;6.87;100.00
17311;BME280;8773;43.300;0.394;2024-02-04T05:27:23;101340.31;;;6.87;100.00
17311;BME280;8773;43.300;0.394;2024-02-04T05:29:51;101343.72;;;6.89;100.00
17311;BME280;8773;43.300;0.394;2024-02-04T05:32:20;101338.06;;;6.95;100.00
17311;BME280;8773;43.300;0.394;2024-02-04T05:34:47;101331.22;;;7.06;100.00
17311;BME280;8773;43.300;0.394;2024-02-04T05:37:14;101333.59;;;7.10;100.00
17311;BME280;8773;43.300;0.394;2024-02-04T05:39:42;101332.06;;;7.06;100.00
17311;BME280;8773;43.300;0.394;2024-02-04T05:42:09;101331.50;;;7.01;100.00
17311;BME280;8773;43.300;0.394;2024-02-04T05:44:36;101326.59;;;6.95;100.00
17311;BME280;8773;43.300;0.394;2024-02-04T05:47:04;101322.50;;;6.89;100.00
17311;BME280;8773;43.300;0.394;2024-02-04T05:49:33;101322.00;;;6.83;100.00
17311;BME280;8773;43.300;0.394;2024-02-04T05:52:00;101321.88;;;6.54;100.00
17311;BME280;8773;43.300;0.394;2024-02-04T05:54:28;101323.69;;;6.54;100.00
17311;BME280;8773;43.300;0.394;2024-02-04T05:56:55;101310.59;;;6.67;100.00
17311;BME280;8773;43.300;0.394;2024-02-04T05:59:22;101327.69;;;6.77;100.00
17311;BME280;8773;43.300;0.394;2024-02-04T06:01:50;101317.41;;;6.71;100.00
17311;BME280;8773;43.300;0.394;2024-02-04T06:04:17;101328.41;;;6.64;100.00
17311;BME280;8773;43.300;0.394;2024-02-04T06:06:46;101322.66;;;6.26;100.00
17311;BME280;8773;43.300;0.394;2024-02-04T06:09:15;101329.88;;;5.93;100.00
17311;BME280;8773;43.300;0.394;2024-02-04T06:11:44;101327.66;;;6.01;100.00
17311;BME280;8773;43.300;0.394;2024-02-04T06:14:12;101339.41;;;6.27;100.00
17311;BME280;8773;43.300;0.394;2024-02-04T06:16:39;101344.88;;;6.24;100.00
17311;BME280;8773;43.300;0.394;2024-02-04T06:19:07;101344.63;;;6.58;100.00
17311;BME280;8773;43.300;0.394;2024-02-04T06:21:34;101357.41;;;6.68;100.00
17311;BME280;8773;43.300;0.394;2024-02-04T06:24:03;101358.38;;;6.51;100.00
17311;BME280;8773;43.300;0.394;2024-02-04T06:26:30;101360.06;;;6.68;100.00
17311;BME280;8773;43.300;0.394;2024-02-04T06:28:58;101350.25;;;6.84;100.00
17311;BME280;8773;43.300;0.394;2024-02-04T06:31:25;101342.13;;;7.01;100.00
17311;BME280;8773;43.300;0.394;2024-02-04T06:33:52;101336.34;;;7.09;100.00
17311;BME280;8773;43.300;0.394;2024-02-04T06:36:20;101336.63;;;7.04;100.00
17311;BME280;8773;43.300;0.394;2024-02-04T06:38:47;101358.94;;;6.72;100.00
17311;BME280;8773;43.300;0.394;2024-02-04T06:41:16;101364.66;;;6.80;100.00
17311;BME280;8773;43.300;0.394;2024-02-04T06:43:43;101353.75;;;6.84;100.00
17311;BME280;8773;43.300;0.394;2024-02-04T06:46:10;101349.81;;;6.91;100.00
17311;BME280;8773;43.300;0.394;2024-02-04T06:48:38;101348.78;;;7.08;100.00
17311;BME280;8773;43.300;0.394;2024-02-04T06:51:05;101353.72;;;7.14;100.00
17311;BME280;8773;43.300;0.394;2024-02-04T06:53:32;101369.09;;;7.23;100.00
17311;BME280;8773;43.300;0.394;2024-02-04T06:56:00;101367.88;;;7.29;100.00
17311;BME280;8773;43.300;0.394;2024-02-04T06:58:29;101363.41;;;7.29;100.00
17311;BME280;8773;43.300;0.394;2024-02-04T07:00:56;101365.31;;;7.27;100.00
17311;BME280;8773;43.300;0.394;2024-02-04T07:03:24;101361.88;;;7.25;100.00
17311;BME280;8773;43.300;0.394;2024-02-04T07:05:51;101360.00;;;7.27;100.00
17311;BME280;8773;43.300;0.394;2024-02-04T07:08:19;101356.97;;;7.34;100.00
17311;BME280;8773;43.300;0.394;2024-02-04T07:10:46;101361.91;;;7.40;100.00
17311;BME280;8773;43.300;0.394;2024-02-04T07:13:14;101363.69;;;7.25;100.00
17311;BME280;8773;43.300;0.394;2024-02-04T07:15:42;101361.41;;;7.33;100.00
17311;BME280;8773;43.300;0.394;2024-02-04T07:18:10;101370.06;;;7.37;100.00
17311;BME280;8773;43.300;0.394;2024-02-04T07:20:37;101368.44;;;7.48;100.00
17311;BME280;8773;43.300;0.394;2024-02-04T07:23:05;101373.75;;;7.48;100.00
17311;BME280;8773;43.300;0.394;2024-02-04T07:25:32;101373.47;;;7.39;100.00
17311;BME280;8773;43.300;0.394;2024-02-04T07:27:59;101367.75;;;7.45;100.00
17311;BME280;8773;43.300;0.394;2024-02-04T07:30:27;101369.84;;;7.54;100.00
17311;BME280;8773;43.300;0.394;2024-02-04T07:32:56;101373.84;;;7.61;100.00
17311;BME280;8773;43.300;0.394;2024-02-04T07:35:23;101378.59;;;7.70;100.00
17311;BME280;8773;43.300;0.394;2024-02-04T07:37:50;101383.03;;;7.70;100.00
17311;BME280;8773;43.300;0.394;2024-02-04T07:40:18;101390.75;;;7.74;100.00
17311;BME280;8773;43.300;0.394;2024-02-04T07:42:45;101394.91;;;7.50;100.00
17311;BME280;8773;43.300;0.394;2024-02-04T07:45:12;101355.63;;;7.41;100.00
17311;BME280;8773;43.300;0.394;2024-02-04T07:47:40;101402.41;;;7.72;100.00
17311;BME280;8773;43.300;0.394;2024-02-04T07:50:09;101411.41;;;7.83;100.00
17311;BME280;8773;43.300;0.394;2024-02-04T07:52:37;101404.84;;;7.89;100.00
17311;BME280;8773;43.300;0.394;2024-02-04T07:55:07;101372.41;;;7.70;100.00
17311;BME280;8773;43.300;0.394;2024-02-04T07:57:35;101421.75;;;8.02;100.00
17311;BME280;8773;43.300;0.394;2024-02-04T08:00:03;101420.88;;;8.16;100.00
17311;BME280;8773;43.300;0.394;2024-02-04T08:02:31;101426.84;;;8.19;100.00
17311;BME280;8773;43.300;0.394;2024-02-04T08:04:58;101427.81;;;8.18;100.00
17311;BME280;8773;43.300;0.394;2024-02-04T08:07:27;101427.75;;;8.32;100.00
17311;BME280;8773;43.300;0.394;2024-02-04T08:09:55;101427.47;;;8.37;100.00
17311;BME280;8773;43.300;0.394;2024-02-04T08:12:22;101429.81;;;8.42;100.00
17311;BME280;8773;43.300;0.394;2024-02-04T08:14:49;101441.53;;;8.53;100.00
17311;BME280;8773;43.300;0.394;2024-02-04T08:17:17;101437.16;;;8.52;100.00
17311;BME280;8773;43.300;0.394;2024-02-04T08:19:44;101430.13;;;8.51;100.00
17311;BME280;8773;43.300;0.394;2024-02-04T08:22:12;101443.44;;;8.51;100.00
17311;BME280;8773;43.300;0.394;2024-02-04T08:24:40;101443.44;;;8.51;100.00
17311;BME280;8773;43.300;0.394;2024-02-04T08:27:08;101443.44;;;8.37;100.00
17311;BME280;8773;43.300;0.394;2024-02-04T08:29:35;101443.06;;;8.29;100.00
17311;BME280;8773;43.300;0.394;2024-02-04T08:32:03;101443.50;;;8.09;100.00
17311;BME280;8773;43.300;0.394;2024-02-04T08:34:30;101435.44;;;7.82;100.00
17311;BME280;8773;43.300;0.394;2024-02-04T08:36:58;101444.19;;;7.70;100.00
17311;BME280;8773;43.300;0.394;2024-02-04T08:39:25;101436.94;;;7.57;100.00
17311;BME280;8773;43.300;0.394;2024-02-04T08:41:54;101445.69;;;7.59;100.00
17311;BME280;8773;43.300;0.394;2024-02-04T08:44:21;101444.56;;;7.63;100.00
17311;BME280;8773;43.300;0.394;2024-02-04T08:47:04;101447.47;;;8.02;100.00
17311;BME280;8773;43.300;0.394;2024-02-04T08:49:32;101448.41;;;8.15;100.00
17311;BME280;8773;43.300;0.394;2024-02-04T08:51:59;101441.59;;;8.11;100.00
17311;BME280;8773;43.300;0.394;2024-02-04T08:54:27;101456.69;;;8.10;100.00
17311;BME280;8773;43.300;0.394;2024-02-04T08:56:56;101456.13;;;8.19;100.00
17311;BME280;8773;43.300;0.394;2024-02-04T08:59:23;101455.50;;;8.28;100.00
17311;BME280;8773;43.300;0.394;2024-02-04T09:01:50;101454.91;;;8.38;100.00
17311;BME280;8773;43.300;0.394;2024-02-04T09:04:18;101460.25;;;8.38;100.00
17311;BME280;8773;43.300;0.394;2024-02-04T09:06:45;101453.69;;;8.43;100.00
17311;BME280;8773;43.300;0.394;2024-02-04T09:09:13;101455.28;;;8.46;100.00
17311;BME280;8773;43.300;0.394;2024-02-04T09:11:40;101447.78;;;8.38;100.00
17311;BME280;8773;43.300;0.394;2024-02-04T09:14:09;101451.25;;;8.26;100.00
17311;BME280;8773;43.300;0.394;2024-02-04T09:16:37;101450.25;;;8.55;100.00
17311;BME280;8773;43.300;0.394;2024-02-04T09:19:05;101448.53;;;8.81;100.00
17311;BME280;8773;43.300;0.394;2024-02-04T09:21:32;101447.66;;;8.68;100.00
17311;BME280;8773;43.300;0.394;2024-02-04T09:24:00;101449.13;;;8.31;100.00
17311;BME280;8773;43.300;0.394;2024-02-04T09:26:27;101442.09;;;8.58;100.00
17311;BME280;8773;43.300;0.394;2024-02-04T09:28:55;101435.25;;;8.54;100.00
17311;BME280;8773;43.300;0.394;2024-02-04T09:31:23;101432.38;;;8.57;100.00
17311;BME280;8773;43.300;0.394;2024-02-04T09:33:51;101427.53;;;8.64;100.00
17311;BME280;8773;43.300;0.394;2024-02-04T09:36:19;101430.94;;;8.66;100.00
17311;BME280;8773;43.300;0.394;2024-02-04T09:38:46;101420.22;;;8.80;100.00
17311;BME280;8773;43.300;0.394;2024-02-04T09:41:14;101425.50;;;9.07;100.00
17311;BME280;8773;43.300;0.394;2024-02-04T09:43:42;101411.66;;;9.15;100.00
17311;BME280;8773;43.300;0.394;2024-02-04T09:46:10;101420.00;;;9.36;100.00
17311;BME280;8773;43.300;0.394;2024-02-04T09:48:39;101419.66;;;9.27;100.00
17311;BME280;8773;43.300;0.394;2024-02-04T09:51:08;101427.97;;;9.10;100.00
17311;BME280;8773;43.300;0.394;2024-02-04T09:53:36;101428.00;;;8.56;100.00
17311;BME280;8773;43.300;0.394;2024-02-04T09:56:04;101420.81;;;8.30;100.00
17311;BME280;8773;43.300;0.394;2024-02-04T09:58:32;101435.31;;;8.12;100.00
17311;BME280;8773;43.300;0.394;2024-02-04T10:01:00;101424.19;;;8.60;100.00
17311;BME280;8773;43.300;0.394;2024-02-04T10:03:28;101419.69;;;8.88;100.00
17311;BME280;8773;43.300;0.394;2024-02-04T10:05:57;101419.25;;;9.34;100.00
17311;BME280;8773;43.300;0.394;2024-02-04T10:08:25;101410.94;;;9.51;100.00
17311;BME280;8773;43.300;0.394;2024-02-04T10:10:53;101408.69;;;9.70;100.00
17311;BME280;8773;43.300;0.394;2024-02-04T10:13:20;101417.53;;;9.71;100.00
17311;BME280;8773;43.300;0.394;2024-02-04T10:15:48;101415.81;;;9.82;100.00
17311;BME280;8773;43.300;0.394;2024-02-04T10:18:16;101413.41;;;10.28;100.00
17311;BME280;8773;43.300;0.394;2024-02-04T10:20:44;101421.44;;;10.16;100.00
17311;BME280;8773;43.300;0.394;2024-02-04T10:23:13;101415.19;;;10.41;100.00
17311;BME280;8773;43.300;0.394;2024-02-04T10:25:41;101417.56;;;10.20;100.00
17311;BME280;8773;43.300;0.394;2024-02-04T10:28:08;101407.75;;;10.20;100.00
17311;BME280;8773;43.300;0.394;2024-02-04T10:30:37;101406.91;;;10.20;100.00
17311;BME280;8773;43.300;0.394;2024-02-04T10:33:05;101411.97;;;10.59;100.00
17311;BME280;8773;43.300;0.394;2024-02-04T10:35:33;101411.69;;;10.75;100.00
17311;BME280;8773;43.300;0.394;2024-02-04T10:38:00;101396.13;;;11.04;100.00
17311;BME280;8773;43.300;0.394;2024-02-04T10:40:29;101394.53;;;11.02;100.00
17311;BME280;8773;43.300;0.394;2024-02-04T10:43:00;101405.03;;;11.16;100.00
17311;BME280;8773;43.300;0.394;2024-02-04T10:45:32;101378.19;;;11.17;100.00
17311;BME280;8773;43.300;0.394;2024-02-04T10:48:01;101382.22;;;11.34;100.00
17311;BME280;8773;43.300;0.394;2024-02-04T10:50:30;101400.03;;;10.52;100.00
17311;BME280;8773;43.300;0.394;2024-02-04T10:52:58;101402.78;;;10.63;100.00
17311;BME280;8773;43.300;0.394;2024-02-04T10:55:30;101396.81;;;10.84;100.00
17311;BME280;8773;43.300;0.394;2024-02-04T10:57:58;101376.50;;;11.27;100.00
17311;BME280;8773;43.300;0.394;2024-02-04T11:00:27;101382.16;;;11.47;100.00
17311;BME280;8773;43.300;0.394;2024-02-04T11:02:56;101384.50;;;11.16;100.00
17311;BME280;8773;43.300;0.394;2024-02-04T11:05:24;101385.50;;;10.91;100.00
17311;BME280;8773;43.300;0.394;2024-02-04T11:07:52;101390.16;;;10.66;100.00
17311;BME280;8773;43.300;0.394;2024-02-04T11:10:19;101389.25;;;10.54;100.00
17311;BME280;8773;43.300;0.394;2024-02-04T11:12:49;101377.44;;;9.72;100.00
17311;BME280;8773;43.300;0.394;2024-02-04T11:15:18;101378.59;;;10.30;100.00
17311;BME280;8773;43.300;0.394;2024-02-04T11:18:01;101372.16;;;10.80;100.00
17311;BME280;8773;43.300;0.394;2024-02-04T11:23:43;101357.13;;;11.70;100.00
17311;BME280;8773;43.300;0.394;2024-02-04T11:26:15;101356.94;;;11.38;100.00
17311;BME280;8773;43.300;0.394;2024-02-04T11:28:45;101365.25;;;11.00;100.00
17311;BME280;8773;43.300;0.394;2024-02-04T11:31:17;101365.38;;;10.99;100.00
17311;BME280;8773;43.300;0.394;2024-02-04T11:33:45;101357.72;;;10.83;100.00
17311;BME280;8773;43.300;0.394;2024-02-04T11:36:14;101363.50;;;10.77;100.00
17311;BME280;8773;43.300;0.394;2024-02-04T11:38:41;101361.97;;;10.14;100.00
17311;BME280;8773;43.300;0.394;2024-02-04T11:41:09;101357.63;;;10.13;100.00
17311;BME280;8773;43.300;0.394;2024-02-04T11:43:37;101361.97;;;10.14;100.00
17311;BME280;8773;43.300;0.394;2024-02-04T11:46:06;101352.50;;;10.10;100.00
17311;BME280;8773;43.300;0.394;2024-02-04T11:48:34;101352.69;;;10.19;100.00
17311;BME280;8773;43.300;0.394;2024-02-04T11:51:04;101351.59;;;10.22;100.00
17311;BME280;8773;43.300;0.394;2024-02-04T11:53:32;101343.25;;;9.90;100.00
17311;BME280;8773;43.300;0.394;2024-02-04T11:56:00;101338.13;;;10.00;100.00
17311;BME280;8773;43.300;0.394;2024-02-04T11:58:29;101336.78;;;9.81;100.00
17311;BME280;8773;43.300;0.394;2024-02-04T12:00:57;101339.19;;;9.97;100.00
17311;BME280;8773;43.300;0.394;2024-02-04T12:03:33;101332.22;;;9.58;100.00
17311;BME280;8773;43.300;0.394;2024-02-04T12:06:02;101333.81;;;9.73;100.00
17311;BME280;8773;43.300;0.394;2024-02-04T12:08:31;101335.72;;;10.20;100.00
17311;BME280;8773;43.300;0.394;2024-02-04T12:11:00;101330.91;;;9.89;100.00
17311;BME280;8773;43.300;0.394;2024-02-04T12:13:28;101323.22;;;9.84;100.00
17311;BME280;8773;43.300;0.394;2024-02-04T12:15:56;101321.63;;;10.06;100.00
17311;BME280;8773;43.300;0.394;2024-02-04T12:18:23;101317.44;;;9.54;100.00
17311;BME280;8773;43.300;0.394;2024-02-04T12:20:52;101316.00;;;9.74;100.00
17311;BME280;8773;43.300;0.394;2024-02-04T12:23:21;101316.16;;;9.96;100.00
17311;BME280;8773;43.300;0.394;2024-02-04T12:25:48;101307.22;;;10.21;100.00
17311;BME280;8773;43.300;0.394;2024-02-04T12:28:16;101300.34;;;10.65;100.00
17311;BME280;8773;43.300;0.394;2024-02-04T12:30:52;101294.34;;;10.96;100.00
17311;BME280;8773;43.300;0.394;2024-02-04T12:33:20;101300.38;;;10.76;100.00
17311;BME280;8773;43.300;0.394;2024-02-04T12:35:49;101298.53;;;10.65;100.00
17311;BME280;8773;43.300;0.394;2024-02-04T12:38:18;101300.41;;;10.98;100.00
17311;BME280;8773;43.300;0.394;2024-02-04T12:40:45;101298.44;;;10.78;100.00
17311;BME280;8773;43.300;0.394;2024-02-04T12:43:13;101293.09;;;10.89;100.00
17311;BME280;8773;43.300;0.394;2024-02-04T12:45:41;101286.69;;;11.03;100.00
17311;BME280;8773;43.300;0.394;2024-02-04T12:48:08;101288.16;;;11.07;100.00
17311;BME280;8773;43.300;0.394;2024-02-04T12:50:37;101291.53;;;10.98;100.00
17311;BME280;8773;43.300;0.394;2024-02-04T12:53:05;101273.22;;;10.47;100.00
17311;BME280;8773;43.300;0.394;2024-02-04T12:55:35;101295.75;;;10.67;100.00
17311;BME280;8773;43.300;0.394;2024-02-04T12:58:04;101292.94;;;10.68;100.00
17311;BME280;8773;43.300;0.394;2024-02-04T13:00:32;101294.22;;;10.16;100.00
17311;BME280;8773;43.300;0.394;2024-02-04T13:03:00;101298.56;;;10.41;100.00
17311;BME280;8773;43.300;0.394;2024-02-04T13:05:30;101304.47;;;10.10;100.00